Time;durP1;ratioP1;P1;durP2;ratioP2;P2;SDS_P1;SDS_P2;PMS_P1;PMS_P2;Temp;Humidity;BMP_temperature;BMP_pressure;BME280_temperature;BME280_humidity;BME280_pressure;Samples;Min_cycle;Max_cycle;Signal;HPM_P1;HPM_P2
2023/10/23 00:01:59;;;;;;;0.55;0.55;;;5.40;99.90;;;;;;5073024;28;20200;-71
2023/10/23 00:04:25;;;;;;;0.50;0.50;;;5.30;99.90;;;;;;4991409;28;20709;-71
2023/10/23 00:07:03;;;;;;;0.70;0.70;;;5.30;99.90;;;;;;4994780;28;20204;-72
2023/10/23 00:09:29;;;;;;;0.82;0.82;;;5.30;99.90;;;;;;4996337;28;20675;-69
2023/10/23 00:11:54;;;;;;;0.70;0.70;;;5.40;99.90;;;;;;5007042;28;20202;-69
2023/10/23 00:14:20;;;;;;;0.55;0.55;;;5.40;99.90;;;;;;4990433;28;20708;-69
2023/10/23 00:17:32;;;;;;;;;;;;;;;;;;;;;
2023/10/23 00:23:57;;;;;;;0.60;0.60;;;5.40;99.90;;;;;;4914674;29;20202;-71
2023/10/23 00:26:23;;;;;;;0.60;0.60;;;5.40;99.90;;;;;;4927913;29;20205;-69
2023/10/23 00:29:06;;;;;;;0.47;0.47;;;5.40;99.90;;;;;;4962174;28;20218;-73
2023/10/23 00:31:32;;;;;;;0.50;0.50;;;5.40;99.90;;;;;;4959420;28;20204;-71
2023/10/23 00:34:01;;;;;;;0.57;0.57;;;5.40;99.90;;;;;;4949893;28;20224;-71
2023/10/23 00:36:47;;;;;;;0.60;0.60;;;5.40;99.90;;;;;;5008077;28;20214;-72
2023/10/23 00:39:27;;;;;;;0.68;0.68;;;5.40;99.90;;;;;;5007703;28;20225;-72
2023/10/23 00:41:53;;;;;;;0.63;0.63;;;5.40;99.90;;;;;;5007296;28;20222;-72
2023/10/23 00:44:18;;;;;;;0.70;0.70;;;5.40;99.90;;;;;;5006577;28;20203;-72
2023/10/23 00:46:45;;;;;;;0.60;0.60;;;5.40;99.90;;;;;;5006257;28;20614;-72
2023/10/23 00:49:11;;;;;;;0.60;0.60;;;5.40;99.90;;;;;;5006718;28;20222;-71
2023/10/23 00:51:37;;;;;;;0.63;0.63;;;5.40;99.90;;;;;;5006322;28;20674;-71
2023/10/23 00:54:05;;;;;;;0.60;0.60;;;5.40;99.90;;;;;;5011239;28;20230;-71
2023/10/23 00:56:32;;;;;;;0.60;0.60;;;5.40;99.90;;;;;;5021237;28;20254;-71
2023/10/23 00:58:58;;;;;;;0.55;0.55;;;5.40;99.90;;;;;;5026168;28;20202;-71
2023/10/23 01:01:26;;;;;;;0.60;0.60;;;5.40;99.90;;;;;;5061495;28;20283;-72
2023/10/23 01:03:51;;;;;;;0.50;0.50;;;5.40;99.90;;;;;;5068080;28;20193;-71
2023/10/23 01:06:17;;;;;;;0.50;0.50;;;5.40;99.90;;;;;;5081673;28;20614;-71
2023/10/23 01:08:43;;;;;;;0.85;0.85;;;5.40;99.90;;;;;;5088156;28;20208;-68
2023/10/23 01:11:09;;;;;;;0.60;0.60;;;5.40;99.90;;;;;;5070534;28;20257;-68
2023/10/23 01:13:35;;;;;;;0.57;0.57;;;5.40;99.90;;;;;;5087929;28;20238;-71
2023/10/23 01:16:00;;;;;;;0.60;0.60;;;5.40;99.90;;;;;;5088686;28;20292;-68
2023/10/23 01:18:26;;;;;;;0.60;0.60;;;5.40;99.90;;;;;;5088088;28;20278;-69
2023/10/23 01:20:52;;;;;;;0.50;0.50;;;5.40;99.90;;;;;;5088275;28;20698;-68
2023/10/23 01:23:18;;;;;;;0.60;0.60;;;5.40;99.90;;;;;;5070013;28;20196;-68
2023/10/23 01:25:44;;;;;;;0.60;0.60;;;5.40;99.90;;;;;;5088657;28;20207;-69
2023/10/23 01:28:09;;;;;;;0.70;0.70;;;5.40;99.90;;;;;;5077026;28;20197;-71
2023/10/23 01:30:35;;;;;;;0.60;0.60;;;5.40;99.90;;;;;;5067866;28;20280;-69
2023/10/23 01:33:01;;;;;;;0.70;0.70;;;5.40;99.90;;;;;;5050011;28;20243;-69
2023/10/23 01:35:27;;;;;;;0.68;0.68;;;5.40;99.90;;;;;;5068027;28;20277;-69
2023/10/23 01:37:52;;;;;;;0.60;0.60;;;5.40;99.90;;;;;;5067936;28;20603;-69
2023/10/23 01:40:18;;;;;;;0.60;0.60;;;5.40;99.90;;;;;;5068291;28;20189;-71
2023/10/23 01:42:46;;;;;;;0.50;0.50;;;5.40;99.90;;;;;;5070093;28;20250;-71
2023/10/23 01:45:12;;;;;;;0.60;0.60;;;5.40;99.90;;;;;;5071878;28;20208;-71
2023/10/23 01:47:38;;;;;;;0.60;0.60;;;5.40;99.90;;;;;;5072097;28;20674;-71
2023/10/23 01:50:04;;;;;;;0.70;0.70;;;5.40;99.90;;;;;;5071875;28;20197;-72
2023/10/23 01:52:30;;;;;;;0.60;0.60;;;5.40;99.90;;;;;;5071563;28;20201;-71
2023/10/23 01:54:58;;;;;;;0.50;0.50;;;5.40;99.90;;;;;;5087731;28;20239;-71
2023/10/23 01:57:24;;;;;;;0.47;0.47;;;5.40;99.90;;;;;;5091695;28;20623;-71
2023/10/23 01:59:49;;;;;;;0.60;0.60;;;5.40;99.90;;;;;;5074073;28;20193;-71
2023/10/23 02:02:15;;;;;;;0.70;0.70;;;5.40;99.90;;;;;;5064709;28;20195;-70
2023/10/23 02:04:40;;;;;;;0.50;0.50;;;5.40;99.90;;;;;;5091759;28;20248;-71
2023/10/23 02:07:06;;;;;;;0.50;0.50;;;5.40;99.90;;;;;;5091769;28;20196;-70
2023/10/23 02:09:32;;;;;;;0.47;0.47;;;5.40;99.90;;;;;;5090363;28;20204;-70
2023/10/23 02:11:58;;;;;;;0.50;0.50;;;5.40;99.90;;;;;;5091607;28;20236;-70
2023/10/23 02:14:24;;;;;;;0.50;0.50;;;5.40;99.90;;;;;;5091544;28;20215;-70
2023/10/23 02:16:50;;;;;;;0.70;0.70;;;5.30;99.90;;;;;;5089316;28;20196;-70
2023/10/23 02:19:15;;;;;;;0.50;0.50;;;5.40;99.90;;;;;;5071150;28;20222;-70
2023/10/23 02:21:49;;;;;;;0.60;0.60;;;5.30;99.90;;;;;;5071103;28;20195;-71
2023/10/23 02:24:19;;;;;;;0.50;0.50;;;5.40;99.90;;;;;;5083744;28;20199;-71
2023/10/23 02:26:45;;;;;;;0.70;0.70;;;5.40;99.90;;;;;;5111746;28;20199;-71
2023/10/23 02:29:11;;;;;;;0.60;0.60;;;5.40;99.90;;;;;;5111928;28;20210;-72
2023/10/23 02:31:36;;;;;;;0.60;0.60;;;5.40;99.90;;;;;;5111400;28;20195;-72
2023/10/23 02:34:03;;;;;;;0.70;0.70;;;5.40;99.90;;;;;;5111486;28;20962;-71
2023/10/23 02:36:28;;;;;;;0.68;0.68;;;5.40;99.90;;;;;;5111395;28;20196;-71
2023/10/23 02:38:54;;;;;;;0.50;0.50;;;5.30;99.90;;;;;;5111359;28;20198;-71
2023/10/23 02:41:20;;;;;;;0.98;0.98;;;5.40;99.90;;;;;;5108413;28;20203;-72
2023/10/23 02:43:45;;;;;;;0.63;0.63;;;5.40;99.90;;;;;;5072563;28;20654;-72
2023/10/23 02:46:11;;;;;;;0.55;0.55;;;5.40;99.90;;;;;;5090895;28;20196;-71
2023/10/23 02:48:37;;;;;;;0.60;0.60;;;5.40;99.90;;;;;;5091078;28;20249;-71
2023/10/23 02:51:03;;;;;;;0.60;0.60;;;5.40;99.90;;;;;;5091351;28;20582;-71
2023/10/23 02:53:29;;;;;;;0.50;0.50;;;5.40;99.90;;;;;;5090006;28;20204;-71
2023/10/23 02:55:55;;;;;;;0.60;0.60;;;5.40;99.90;;;;;;5091107;28;20204;-72
2023/10/23 02:58:21;;;;;;;0.65;0.65;;;5.40;99.90;;;;;;5072285;28;20223;-71
2023/10/23 03:00:47;;;;;;;0.60;0.60;;;5.40;99.90;;;;;;5066446;28;20207;-72
2023/10/23 03:03:13;;;;;;;0.60;0.60;;;5.40;99.90;;;;;;5058098;28;20200;-71
2023/10/23 03:05:39;;;;;;;0.52;0.52;;;5.40;99.90;;;;;;5090454;28;20212;-71
2023/10/23 03:08:05;;;;;;;0.50;0.50;;;5.40;99.90;;;;;;5090398;28;20271;-71
2023/10/23 03:10:32;;;;;;;0.60;0.60;;;5.30;99.90;;;;;;5090321;28;20192;-71
2023/10/23 03:12:57;;;;;;;0.60;0.60;;;5.40;99.90;;;;;;5090436;28;20562;-72
2023/10/23 03:15:23;;;;;;;0.60;0.60;;;5.40;99.90;;;;;;5090040;28;20261;-71
2023/10/23 03:17:50;;;;;;;0.60;0.60;;;5.30;99.90;;;;;;5072567;28;20243;-71
2023/10/23 03:20:16;;;;;;;0.60;0.60;;;5.40;99.90;;;;;;5093859;28;20287;-71
2023/10/23 03:22:41;;;;;;;0.50;0.50;;;5.40;99.90;;;;;;5110410;28;20332;-71
2023/10/23 03:25:08;;;;;;;0.60;0.60;;;5.40;99.90;;;;;;5110615;28;20252;-72
2023/10/23 03:27:34;;;;;;;0.63;0.63;;;5.40;99.90;;;;;;5110366;28;20221;-71
2023/10/23 03:30:00;;;;;;;0.70;0.70;;;5.40;99.90;;;;;;5110789;28;20200;-71
2023/10/23 03:32:26;;;;;;;0.70;0.70;;;5.40;99.90;;;;;;5110280;28;20200;-71
2023/10/23 03:34:52;;;;;;;0.50;0.50;;;5.40;99.90;;;;;;5110283;28;20431;-71
2023/10/23 03:37:17;;;;;;;9.25;5.32;;;5.40;99.90;;;;;;5110529;28;20195;-71
2023/10/23 03:39:43;;;;;;;3.80;3.22;;;5.40;99.90;;;;;;5110399;28;20191;-71
2023/10/23 03:42:09;;;;;;;1.17;1.17;;;5.40;99.90;;;;;;5110425;28;20680;-71
2023/10/23 03:44:38;;;;;;;2.28;1.90;;;5.40;99.90;;;;;;5091547;28;20199;-71
2023/10/23 03:47:04;;;;;;;1.00;1.00;;;5.40;99.90;;;;;;5110387;28;20711;-71
2023/10/23 03:49:30;;;;;;;12.18;8.98;;;5.40;99.90;;;;;;5109908;28;20669;-71
2023/10/23 03:51:56;;;;;;;5.78;5.05;;;5.40;99.90;;;;;;5077316;28;20200;-71
2023/10/23 03:54:22;;;;;;;1.65;1.55;;;5.40;99.90;;;;;;5088993;28;20228;-71
2023/10/23 03:56:47;;;;;;;0.63;0.63;;;5.40;99.90;;;;;;5089879;28;20214;-71
2023/10/23 03:59:13;;;;;;;0.70;0.70;;;5.40;99.90;;;;;;5089809;28;20200;-69
2023/10/23 04:01:39;;;;;;;0.82;0.82;;;5.40;99.90;;;;;;5071402;28;20204;-70
2023/10/23 04:04:04;;;;;;;1.40;1.30;;;5.40;99.90;;;;;;5081287;28;20245;-70
2023/10/23 04:06:30;;;;;;;0.60;0.60;;;5.40;99.90;;;;;;5070579;28;20222;-69
2023/10/23 04:08:56;;;;;;;0.50;0.50;;;5.40;99.90;;;;;;5089711;28;20593;-69
2023/10/23 04:11:22;;;;;;;0.50;0.50;;;5.40;99.90;;;;;;5070924;28;20199;-68
2023/10/23 04:13:48;;;;;;;0.50;0.50;;;5.40;99.90;;;;;;5089358;28;20260;-69
2023/10/23 04:16:15;;;;;;;0.60;0.60;;;5.40;99.90;;;;;;5091565;28;20650;-68
2023/10/23 04:18:42;;;;;;;0.70;0.70;;;5.40;99.90;;;;;;5109518;28;20241;-69
2023/10/23 04:21:09;;;;;;;0.68;0.68;;;5.40;99.90;;;;;;5109882;28;20287;-69
2023/10/23 04:23:39;;;;;;;0.60;0.60;;;5.40;99.90;;;;;;5091143;28;20199;-68
2023/10/23 04:26:06;;;;;;;0.50;0.50;;;5.40;99.90;;;;;;5109835;28;20650;-68
2023/10/23 04:28:32;;;;;;;0.80;0.80;;;5.50;99.90;;;;;;5109361;28;20670;-68
2023/10/23 04:30:58;;;;;;;0.55;0.55;;;5.50;99.90;;;;;;5091067;28;20196;-70
2023/10/23 04:33:25;;;;;;;0.60;0.60;;;5.40;99.90;;;;;;5109099;28;20210;-69
2023/10/23 04:35:55;;;;;;;0.77;0.77;;;5.40;99.90;;;;;;5109336;28;20186;-70
2023/10/23 04:38:21;;;;;;;0.60;0.60;;;5.40;99.90;;;;;;5109208;28;20271;-68
2023/10/23 04:40:47;;;;;;;0.70;0.70;;;5.40;99.90;;;;;;5109197;28;20730;-70
2023/10/23 04:43:13;;;;;;;0.60;0.60;;;5.40;99.90;;;;;;5109252;28;20195;-67
2023/10/23 04:45:39;;;;;;;0.60;0.60;;;5.40;99.90;;;;;;5108841;28;20536;-68
2023/10/23 04:48:05;;;;;;;0.60;0.60;;;5.40;99.90;;;;;;5082114;28;20255;-68
2023/10/23 04:50:32;;;;;;;0.50;0.50;;;5.40;99.90;;;;;;5075736;28;20717;-68
2023/10/23 04:53:01;;;;;;;0.70;0.70;;;5.40;99.90;;;;;;5088812;28;20199;-71
2023/10/23 04:55:32;;;;;;;0.65;0.65;;;5.40;99.90;;;;;;5083186;28;20334;-69
2023/10/23 04:57:58;;;;;;;0.68;0.68;;;5.40;99.90;;;;;;5089092;28;20683;-70
2023/10/23 05:00:23;;;;;;;0.50;0.50;;;5.40;99.90;;;;;;5088782;28;20219;-67
2023/10/23 05:02:49;;;;;;;0.70;0.70;;;5.40;99.90;;;;;;5088885;28;20226;-69
2023/10/23 05:05:15;;;;;;;0.70;0.70;;;5.40;99.90;;;;;;5088618;28;20678;-67
2023/10/23 05:07:42;;;;;;;0.50;0.50;;;5.40;99.90;;;;;;5088591;28;20505;-67
2023/10/23 05:10:08;;;;;;;0.63;0.63;;;5.40;99.90;;;;;;5089023;28;20200;-71
2023/10/23 05:12:35;;;;;;;0.85;0.85;;;5.40;99.90;;;;;;5091619;28;20688;-71
2023/10/23 05:15:01;;;;;;;0.90;0.90;;;5.40;99.90;;;;;;5109157;28;20742;-72
2023/10/23 05:17:27;;;;;;;0.93;0.93;;;5.40;99.90;;;;;;5112046;28;20270;-72
2023/10/23 05:19:53;;;;;;;0.70;0.70;;;5.40;99.90;;;;;;5113097;28;20741;-71
2023/10/23 05:22:18;;;;;;;0.70;0.70;;;5.40;99.90;;;;;;5113597;28;20218;-72
2023/10/23 05:24:45;;;;;;;0.50;0.50;;;5.40;99.90;;;;;;5112932;28;20200;-71
2023/10/23 05:27:12;;;;;;;0.50;0.50;;;5.40;99.90;;;;;;5113129;28;20187;-72
2023/10/23 05:29:37;;;;;;;0.70;0.70;;;5.40;99.90;;;;;;5112617;28;20206;-72
2023/10/23 05:32:03;;;;;;;0.60;0.60;;;5.40;99.90;;;;;;5112838;28;20195;-72
2023/10/23 05:34:29;;;;;;;0.57;0.57;;;5.40;99.90;;;;;;5112596;28;20214;-71
2023/10/23 05:36:54;;;;;;;0.50;0.50;;;5.40;99.90;;;;;;5112679;28;20750;-71
2023/10/23 05:39:20;;;;;;;0.60;0.60;;;5.40;99.90;;;;;;5112769;28;20282;-72
2023/10/23 05:41:46;;;;;;;0.50;0.50;;;5.40;99.90;;;;;;5112705;28;20198;-72
2023/10/23 05:44:11;;;;;;;0.50;0.50;;;5.40;99.90;;;;;;5087770;28;20200;-71
2023/10/23 05:46:37;;;;;;;0.70;0.70;;;5.30;99.90;;;;;;5077514;28;20241;-71
2023/10/23 05:49:03;;;;;;;0.68;0.68;;;5.40;99.90;;;;;;5092190;28;20203;-71
2023/10/23 05:51:28;;;;;;;0.60;0.60;;;5.40;99.90;;;;;;5091449;28;20200;-72
2023/10/23 05:53:56;;;;;;;0.57;0.57;;;5.40;99.90;;;;;;5091055;28;20573;-71
2023/10/23 05:56:22;;;;;;;0.60;0.60;;;5.40;99.90;;;;;;5092010;28;20266;-72
2023/10/23 05:58:48;;;;;;;0.85;0.85;;;5.40;99.90;;;;;;5091859;28;20204;-71
2023/10/23 06:01:14;;;;;;;4.28;2.15;;;5.40;99.90;;;;;;5092106;28;20196;-71
2023/10/23 06:03:40;;;;;;;0.50;0.50;;;5.40;99.90;;;;;;5091632;28;20199;-72
2023/10/23 06:06:06;;;;;;;2.88;2.63;;;5.40;99.90;;;;;;5092021;28;20215;-71
2023/10/23 06:08:32;;;;;;;1.33;1.27;;;5.40;99.90;;;;;;5091599;28;20257;-71
2023/10/23 06:10:57;;;;;;;1.17;1.08;;;5.40;99.90;;;;;;5111211;28;20207;-72
2023/10/23 06:13:23;;;;;;;1.90;1.73;;;5.40;99.90;;;;;;5111984;28;20192;-71
2023/10/23 06:15:49;;;;;;;0.98;0.98;;;5.40;99.90;;;;;;5112138;28;20191;-71
2023/10/23 06:18:15;;;;;;;0.60;0.60;;;5.40;99.90;;;;;;5112197;28;20278;-71
2023/10/23 06:20:41;;;;;;;0.80;0.80;;;5.40;99.90;;;;;;5112034;28;20635;-70
2023/10/23 06:23:06;;;;;;;1.55;1.45;;;5.40;99.90;;;;;;5111910;28;20193;-70
2023/10/23 06:25:32;;;;;;;0.60;0.60;;;5.40;99.90;;;;;;5111707;28;20204;-70
2023/10/23 06:27:58;;;;;;;0.80;0.80;;;5.50;99.90;;;;;;5111200;28;20206;-70
2023/10/23 06:30:24;;;;;;;0.50;0.50;;;5.40;99.90;;;;;;5112228;28;20213;-70
2023/10/23 06:32:50;;;;;;;0.85;0.85;;;5.50;99.90;;;;;;5112030;28;20597;-70
2023/10/23 06:35:16;;;;;;;0.60;0.60;;;5.50;99.90;;;;;;5111667;28;20678;-70
2023/10/23 06:37:42;;;;;;;0.70;0.70;;;5.50;99.90;;;;;;5111571;28;20226;-70
2023/10/23 06:40:08;;;;;;;0.60;0.60;;;5.50;99.90;;;;;;5083745;28;20658;-70
2023/10/23 06:42:34;;;;;;;0.50;0.50;;;5.50;99.90;;;;;;5072751;28;20220;-70
2023/10/23 06:45:00;;;;;;;2.03;1.83;;;5.50;99.90;;;;;;5091066;28;20239;-70
2023/10/23 06:47:26;;;;;;;0.80;0.80;;;5.50;99.90;;;;;;5072778;28;20223;-70
2023/10/23 06:49:52;;;;;;;0.68;0.68;;;5.60;99.90;;;;;;5091160;28;20195;-70
2023/10/23 06:52:17;;;;;;;0.70;0.70;;;5.60;99.90;;;;;;5091182;28;20622;-70
2023/10/23 06:54:44;;;;;;;0.57;0.57;;;5.60;99.90;;;;;;5090588;28;20223;-70
2023/10/23 06:57:10;;;;;;;0.60;0.60;;;5.60;99.90;;;;;;5091082;28;20312;-70
2023/10/23 06:59:36;;;;;;;0.80;0.80;;;5.60;99.90;;;;;;5075669;28;20287;-70
2023/10/23 07:02:02;;;;;;;0.57;0.57;;;5.60;99.90;;;;;;5052638;28;20240;-70
2023/10/23 07:04:28;;;;;;;0.80;0.75;;;5.60;99.90;;;;;;5070388;28;20200;-70
2023/10/23 07:06:55;;;;;;;0.80;0.80;;;5.70;99.90;;;;;;5109323;28;20704;-71
2023/10/23 07:09:20;;;;;;;0.95;0.95;;;5.70;99.90;;;;;;5111059;28;20195;-70
2023/10/23 07:11:50;;;;;;;0.50;0.50;;;5.80;99.90;;;;;;5111049;28;20737;-70
2023/10/23 07:14:16;;;;;;;0.80;0.80;;;5.70;99.90;;;;;;5092497;28;20238;-70
2023/10/23 07:16:42;;;;;;;0.60;0.60;;;5.70;99.90;;;;;;5110909;28;20191;-70
2023/10/23 07:19:10;;;;;;;0.63;0.63;;;5.80;99.90;;;;;;5110871;28;20211;-70
2023/10/23 07:21:36;;;;;;;0.70;0.70;;;5.80;99.90;;;;;;5110123;28;20252;-70
2023/10/23 07:24:02;;;;;;;0.68;0.68;;;5.80;99.90;;;;;;5091854;28;20199;-70
2023/10/23 07:26:28;;;;;;;0.70;0.70;;;5.70;99.90;;;;;;5109878;28;20688;-70
2023/10/23 07:28:54;;;;;;;0.95;0.95;;;5.70;99.90;;;;;;5110398;28;20207;-70
2023/10/23 07:31:20;;;;;;;0.68;0.68;;;5.80;99.90;;;;;;5110281;28;20204;-71
2023/10/23 07:33:46;;;;;;;0.60;0.60;;;5.80;99.90;;;;;;5110622;28;20662;-72
2023/10/23 07:36:13;;;;;;;0.60;0.60;;;5.80;99.90;;;;;;5102239;28;20659;-71
2023/10/23 07:38:43;;;;;;;1.05;1.05;;;5.80;99.90;;;;;;5090007;28;21248;-71
2023/10/23 07:41:09;;;;;;;0.70;0.70;;;5.80;99.90;;;;;;5070360;28;20676;-71
2023/10/23 07:43:35;;;;;;;0.70;0.70;;;5.90;99.90;;;;;;5071444;28;20570;-71
2023/10/23 07:46:09;;;;;;;0.70;0.70;;;5.90;99.90;;;;;;5089290;28;20236;-71
2023/10/23 07:48:34;;;;;;;0.50;0.50;;;5.80;99.90;;;;;;5089404;28;20276;-71
2023/10/23 07:51:03;;;;;;;0.60;0.60;;;5.90;99.90;;;;;;5089489;28;20196;-72
2023/10/23 07:53:29;;;;;;;0.50;0.50;;;5.90;99.90;;;;;;5088614;28;20200;-71
2023/10/23 07:55:55;;;;;;;0.60;0.60;;;5.90;99.90;;;;;;5090509;28;20650;-72
2023/10/23 07:58:22;;;;;;;0.70;0.70;;;5.90;99.90;;;;;;5089951;28;20192;-71
2023/10/23 08:00:51;;;;;;;0.57;0.57;;;5.90;99.90;;;;;;5088092;28;20616;-71
2023/10/23 08:03:17;;;;;;;0.90;0.90;;;5.90;99.90;;;;;;5103518;28;20715;-71
2023/10/23 08:05:43;;;;;;;1.10;1.10;;;5.90;99.90;;;;;;5109783;28;20196;-71
2023/10/23 08:08:08;;;;;;;0.60;0.60;;;6.00;99.90;;;;;;5109922;28;20730;-72
2023/10/23 08:10:34;;;;;;;0.63;0.63;;;6.00;99.90;;;;;;5109968;28;20201;-72
2023/10/23 08:13:00;;;;;;;0.60;0.60;;;6.10;99.90;;;;;;5110057;28;20191;-71
2023/10/23 08:15:25;;;;;;;0.68;0.68;;;6.10;99.90;;;;;;5091139;28;20215;-72
2023/10/23 08:17:51;;;;;;;0.50;0.50;;;6.10;99.90;;;;;;5109928;28;20231;-72
2023/10/23 08:20:17;;;;;;;0.70;0.70;;;6.10;99.90;;;;;;5109722;28;20187;-71
2023/10/23 08:22:43;;;;;;;0.65;0.65;;;6.10;99.90;;;;;;5109569;28;20260;-71
2023/10/23 08:25:09;;;;;;;0.60;0.60;;;6.10;99.90;;;;;;5109586;28;20260;-71
2023/10/23 08:27:34;;;;;;;0.60;0.60;;;6.10;99.90;;;;;;5109472;28;20276;-71
2023/10/23 08:30:00;;;;;;;0.50;0.50;;;6.10;99.90;;;;;;5109438;28;20562;-71
2023/10/23 08:32:25;;;;;;;0.60;0.60;;;6.20;99.90;;;;;;5083003;28;20620;-71
2023/10/23 08:34:53;;;;;;;0.85;0.85;;;6.20;99.90;;;;;;5089003;28;20234;-71
2023/10/23 08:37:20;;;;;;;0.60;0.60;;;6.30;99.90;;;;;;5089628;28;20569;-71
2023/10/23 08:39:45;;;;;;;1.25;1.15;;;6.30;99.90;;;;;;5089238;28;20188;-70
2023/10/23 08:42:11;;;;;;;0.70;0.70;;;6.30;99.90;;;;;;5089239;28;20287;-68
2023/10/23 08:44:37;;;;;;;0.70;0.70;;;6.30;99.90;;;;;;5089000;28;20280;-67
2023/10/23 08:47:03;;;;;;;0.70;0.70;;;6.30;99.90;;;;;;5071104;28;20202;-67
2023/10/23 08:49:29;;;;;;;0.60;0.60;;;6.30;99.90;;;;;;5089085;28;20716;-68
2023/10/23 08:51:57;;;;;;;0.60;0.60;;;6.30;99.90;;;;;;5089041;28;20200;-70
2023/10/23 08:54:24;;;;;;;1.90;1.80;;;6.40;99.90;;;;;;5088280;28;20752;-71
2023/10/23 08:56:59;;;;;;;0.68;0.68;;;6.40;99.90;;;;;;5088888;28;20188;-67
2023/10/23 08:59:25;;;;;;;0.52;0.52;;;6.40;99.90;;;;;;5068580;28;20249;-68
2023/10/23 09:01:50;;;;;;;0.52;0.52;;;6.50;99.90;;;;;;5050942;28;20192;-68
2023/10/23 09:04:16;;;;;;;0.68;0.68;;;6.50;99.90;;;;;;5068503;28;20254;-68
2023/10/23 09:06:42;;;;;;;0.57;0.57;;;6.60;99.90;;;;;;5068376;28;20247;-69
2023/10/23 09:09:09;;;;;;;0.50;0.50;;;6.70;99.90;;;;;;5068846;28;20250;-69
2023/10/23 09:11:43;;;;;;;0.60;0.60;;;6.60;99.90;;;;;;5068487;28;20602;-69
2023/10/23 09:14:10;;;;;;;0.70;0.70;;;6.60;99.90;;;;;;5068337;28;20235;-69
2023/10/23 09:16:36;;;;;;;0.85;0.85;;;6.60;99.90;;;;;;5068456;28;20192;-68
2023/10/23 09:19:03;;;;;;;0.60;0.60;;;6.60;99.90;;;;;;5068434;28;20189;-67
2023/10/23 09:21:32;;;;;;;0.70;0.70;;;6.70;99.90;;;;;;5049999;28;20197;-68
2023/10/23 09:24:00;;;;;;;0.60;0.60;;;6.80;99.90;;;;;;5068384;28;20240;-68
2023/10/23 09:26:26;;;;;;;0.57;0.57;;;6.80;99.90;;;;;;5050081;28;20737;-68
2023/10/23 09:28:52;;;;;;;0.60;0.60;;;6.80;99.90;;;;;;5068379;28;20203;-67
2023/10/23 09:31:20;;;;;;;0.60;0.60;;;6.90;99.90;;;;;;5071616;28;20196;-68
2023/10/23 09:33:46;;;;;;;0.60;0.60;;;6.90;99.90;;;;;;5088413;28;20554;-68
2023/10/23 09:36:13;;;;;;;0.60;0.60;;;6.90;99.90;;;;;;5088371;28;20205;-68
2023/10/23 09:38:41;;;;;;;0.65;0.65;;;6.90;99.90;;;;;;5088368;28;20704;-68
2023/10/23 09:41:10;;;;;;;0.85;0.77;;;6.90;99.90;;;;;;5088503;28;20188;-69
2023/10/23 09:43:46;;;;;;;1.23;1.13;;;6.90;99.90;;;;;;5088403;28;20184;-67
2023/10/23 09:46:13;;;;;;;0.60;0.60;;;6.90;99.90;;;;;;5088368;28;20192;-70
2023/10/23 09:48:43;;;;;;;0.70;0.70;;;6.90;99.90;;;;;;5088373;28;20200;-70
2023/10/23 09:51:16;;;;;;;0.60;0.60;;;6.90;99.90;;;;;;5088712;28;20609;-69
2023/10/23 09:54:00;;;;;;;0.55;0.55;;;6.90;99.90;;;;;;5090857;28;20301;-68
2023/10/23 09:56:30;;;;;;;0.90;0.90;;;7.00;99.90;;;;;;5108412;28;20561;-68
2023/10/23 09:59:04;;;;;;;0.70;0.70;;;7.00;99.90;;;;;;5108789;28;20662;-67
2023/10/23 10:02:00;;;;;;;0.75;0.75;;;7.00;99.90;;;;;;5108491;28;20192;-70
2023/10/23 10:04:36;;;;;;;0.65;0.65;;;7.10;99.90;;;;;;5090458;28;20773;-68
2023/10/23 10:07:14;;;;;;;0.60;0.60;;;7.10;99.90;;;;;;5112107;28;20628;-68
2023/10/23 10:09:41;;;;;;;0.70;0.70;;;7.10;99.90;;;;;;5112113;28;21183;-70
2023/10/23 10:12:08;;;;;;;0.60;0.60;;;7.20;99.90;;;;;;5110835;28;20237;-68
2023/10/23 10:14:35;;;;;;;0.60;0.60;;;7.20;99.90;;;;;;5091409;28;20204;-68
2023/10/23 10:17:02;;;;;;;1.45;1.35;;;7.20;99.90;;;;;;5091672;28;20605;-68
2023/10/23 10:19:28;;;;;;;0.60;0.60;;;7.20;99.90;;;;;;5091694;28;20187;-69
2023/10/23 10:22:06;;;;;;;0.70;0.70;;;7.20;99.90;;;;;;5091563;28;20611;-68
2023/10/23 10:24:36;;;;;;;0.60;0.60;;;7.30;99.90;;;;;;5086688;28;20196;-68
2023/10/23 10:27:03;;;;;;;0.77;0.77;;;7.30;99.90;;;;;;5071320;28;20274;-67
2023/10/23 10:29:30;;;;;;;0.77;0.77;;;7.40;99.90;;;;;;5090473;28;20207;-68
2023/10/23 10:32:09;;;;;;;0.70;0.70;;;7.30;99.90;;;;;;5091390;28;20694;-68
2023/10/23 10:34:38;;;;;;;0.60;0.60;;;7.30;99.90;;;;;;5090951;28;20587;-71
2023/10/23 10:37:06;;;;;;;0.70;0.70;;;7.30;99.90;;;;;;5091126;28;20202;-68
2023/10/23 10:39:48;;;;;;;0.60;0.60;;;7.20;99.90;;;;;;5091149;28;20211;-69
2023/10/23 10:42:18;;;;;;;0.60;0.60;;;7.20;99.90;;;;;;5091115;28;20559;-69
2023/10/23 10:45:15;;;;;;;0.60;0.60;;;7.20;99.90;;;;;;5091327;28;20727;-70
2023/10/23 10:47:46;;;;;;;0.65;0.65;;;7.20;99.90;;;;;;5090878;28;20706;-70
2023/10/23 10:50:29;;;;;;;0.60;0.60;;;7.20;99.90;;;;;;5095276;28;20206;-69
2023/10/23 10:53:00;;;;;;;0.60;0.60;;;7.20;99.90;;;;;;5111397;28;20199;-69
2023/10/23 10:55:26;;;;;;;0.60;0.60;;;7.30;99.90;;;;;;5070779;28;20553;-69
2023/10/23 10:57:53;;;;;;;0.50;0.50;;;7.30;99.90;;;;;;5070864;28;20242;-69
2023/10/23 11:00:18;;;;;;;0.65;0.65;;;7.40;99.90;;;;;;5070641;28;20188;-70
2023/10/23 11:02:44;;;;;;;0.50;0.50;;;7.40;99.90;;;;;;5052475;28;20537;-72
2023/10/23 11:05:12;;;;;;;0.60;0.60;;;7.30;99.90;;;;;;5070606;28;20196;-73
2023/10/23 11:07:37;;;;;;;0.50;0.50;;;7.40;99.90;;;;;;5070459;28;20672;-73
2023/10/23 11:10:05;;;;;;;0.60;0.60;;;7.30;99.90;;;;;;5070726;28;20220;-72
2023/10/23 11:12:30;;;;;;;0.75;0.75;;;7.30;99.90;;;;;;5070168;28;20280;-72
2023/10/23 11:14:56;;;;;;;0.63;0.63;;;7.40;99.90;;;;;;5070000;28;20622;-73
2023/10/23 11:17:23;;;;;;;0.60;0.60;;;7.30;99.90;;;;;;5070061;28;20699;-72
2023/10/23 11:19:49;;;;;;;0.68;0.68;;;7.30;99.90;;;;;;5070553;28;20320;-72
2023/10/23 11:22:17;;;;;;;0.60;0.60;;;7.40;99.90;;;;;;5086774;28;20227;-72
2023/10/23 11:24:43;;;;;;;0.70;0.70;;;7.40;99.90;;;;;;5090217;28;20200;-72
2023/10/23 11:27:09;;;;;;;0.60;0.60;;;7.40;99.90;;;;;;5090457;28;20219;-72
2023/10/23 11:29:46;;;;;;;1.10;1.10;;;7.40;99.90;;;;;;5090173;28;20203;-73
2023/10/23 11:32:13;;;;;;;0.60;0.60;;;7.50;99.90;;;;;;5090426;28;20204;-73
2023/10/23 11:34:38;;;;;;;0.60;0.60;;;7.60;99.90;;;;;;5071893;28;20226;-72
2023/10/23 11:37:06;;;;;;;0.50;0.50;;;7.60;99.90;;;;;;5090193;28;20554;-72
2023/10/23 11:39:32;;;;;;;0.50;0.50;;;7.60;99.90;;;;;;5089789;28;20278;-73
2023/10/23 11:41:59;;;;;;;0.70;0.70;;;7.70;99.90;;;;;;5090347;28;20725;-72
2023/10/23 11:44:30;;;;;;;0.60;0.60;;;7.80;99.90;;;;;;5089796;28;20188;-73
2023/10/23 11:46:58;;;;;;;0.70;0.70;;;7.90;99.90;;;;;;5091854;28;20207;-72
2023/10/23 11:49:24;;;;;;;0.60;0.60;;;7.90;99.90;;;;;;5110493;28;20702;-72
2023/10/23 11:51:51;;;;;;;0.60;0.60;;;7.90;99.90;;;;;;5110606;28;20264;-73
2023/10/23 11:54:18;;;;;;;0.60;0.60;;;7.90;99.90;;;;;;5079804;28;20316;-73
2023/10/23 11:56:44;;;;;;;0.60;0.60;;;7.90;99.90;;;;;;5049718;28;20201;-73
2023/10/23 11:59:20;;;;;;;0.60;0.60;;;7.90;99.90;;;;;;5049477;28;20193;-72
2023/10/23 12:01:47;;;;;;;0.60;0.60;;;7.90;99.90;;;;;;5049438;28;20271;-73
2023/10/23 12:04:13;;;;;;;0.50;0.50;;;7.90;99.90;;;;;;5049736;28;20650;-73
2023/10/23 12:06:40;;;;;;;0.40;0.40;;;7.90;99.90;;;;;;5049328;28;20233;-73
2023/10/23 12:09:06;;;;;;;0.60;0.60;;;7.90;99.90;;;;;;5049492;28;20273;-73
2023/10/23 12:11:33;;;;;;;0.50;0.50;;;7.80;99.90;;;;;;5049428;28;20201;-72
2023/10/23 12:14:01;;;;;;;0.50;0.50;;;7.80;99.90;;;;;;5049263;28;20198;-72
2023/10/23 12:16:28;;;;;;;0.60;0.60;;;7.80;99.90;;;;;;5049325;28;20516;-72
2023/10/23 12:18:54;;;;;;;0.50;0.50;;;7.80;99.90;;;;;;5069238;28;20196;-73
2023/10/23 12:21:20;;;;;;;0.50;0.50;;;7.70;99.90;;;;;;5050900;28;20219;-72
2023/10/23 12:23:46;;;;;;;0.70;0.70;;;7.70;99.90;;;;;;5069263;28;20287;-72
2023/10/23 12:26:12;;;;;;;0.60;0.60;;;7.60;99.90;;;;;;5050381;28;20205;-72
2023/10/23 12:28:38;;;;;;;0.60;0.60;;;7.60;99.90;;;;;;5068812;28;20193;-72
2023/10/23 12:31:04;;;;;;;0.50;0.50;;;7.50;99.90;;;;;;5069510;28;20185;-72
2023/10/23 12:33:31;;;;;;;0.60;0.60;;;7.50;99.90;;;;;;5068717;28;20197;-72
2023/10/23 12:35:57;;;;;;;0.70;0.70;;;7.40;99.90;;;;;;5068965;28;20282;-72
2023/10/23 12:38:23;;;;;;;0.60;0.60;;;7.40;99.90;;;;;;5069068;28;20216;-72
2023/10/23 12:40:49;;;;;;;0.60;0.60;;;7.40;99.90;;;;;;5050987;28;20193;-72
2023/10/23 12:43:15;;;;;;;2.90;2.40;;;7.50;99.90;;;;;;5057906;28;20296;-72
2023/10/23 12:45:43;;;;;;;0.60;0.60;;;7.50;99.90;;;;;;5088791;28;20671;-72
2023/10/23 12:48:10;;;;;;;0.60;0.60;;;7.50;99.90;;;;;;5088956;28;20654;-72
2023/10/23 12:50:36;;;;;;;0.60;0.60;;;7.50;99.90;;;;;;5088629;28;20222;-72
2023/10/23 12:53:04;;;;;;;0.50;0.50;;;7.50;99.90;;;;;;5088187;28;20618;-73
2023/10/23 12:55:29;;;;;;;0.50;0.50;;;7.50;99.90;;;;;;5067009;28;20209;-72
2023/10/23 12:57:55;;;;;;;0.50;0.50;;;7.60;99.90;;;;;;5068718;28;20275;-72
2023/10/23 13:00:21;;;;;;;0.50;0.50;;;7.60;99.90;;;;;;5068892;28;20185;-72
2023/10/23 13:02:46;;;;;;;0.57;0.57;;;7.60;99.90;;;;;;5068491;28;20193;-72